sensor_id;sensor_type;location;lat;lon;timestamp;P1;P2;P0
44871;PMS7003;30602;51.060;17.226;2023-04-04T00:00:42;7;6;5
44871;PMS7003;30602;51.060;17.226;2023-04-04T00:04:18;8;4;3
44871;PMS7003;30602;51.060;17.226;2023-04-04T00:07:53;4;4;2
44871;PMS7003;30602;51.060;17.226;2023-04-04T00:11:27;7;5;3
44871;PMS7003;30602;51.060;17.226;2023-04-04T00:14:53;7;5;3
44871;PMS7003;30602;51.060;17.226;2023-04-04T00:19:17;7;7;6
44871;PMS7003;30602;51.060;17.226;2023-04-04T00:22:57;6;4;3
44871;PMS7003;30602;51.060;17.226;2023-04-04T00:26:38;8;4;3
44871;PMS7003;30602;51.060;17.226;2023-04-04T00:30:32;6;3;3
44871;PMS7003;30602;51.060;17.226;2023-04-04T00:33:57;6;5;4
44871;PMS7003;30602;51.060;17.226;2023-04-04T00:37:52;5;4;3
44871;PMS7003;30602;51.060;17.226;2023-04-04T00:41:47;3;2;1
44871;PMS7003;30602;51.060;17.226;2023-04-04T00:46:34;7;4;3
44871;PMS7003;30602;51.060;17.226;2023-04-04T00:49:55;4;4;2
44871;PMS7003;30602;51.060;17.226;2023-04-04T00:53:19;6;5;2
44871;PMS7003;30602;51.060;17.226;2023-04-04T00:57:02;3;3;2
44871;PMS7003;30602;51.060;17.226;2023-04-04T01:00:48;5;3;3
44871;PMS7003;30602;51.060;17.226;2023-04-04T01:04:30;6;4;2
44871;PMS7003;30602;51.060;17.226;2023-04-04T01:07:51;7;3;3
44871;PMS7003;30602;51.060;17.226;2023-04-04T01:12:02;3;2;2
44871;PMS7003;30602;51.060;17.226;2023-04-04T01:15:45;2;2;1
44871;PMS7003;30602;51.060;17.226;2023-04-04T01:19:42;7;4;3
44871;PMS7003;30602;51.060;17.226;2023-04-04T01:27:39;5;3;2
44871;PMS7003;30602;51.060;17.226;2023-04-04T01:31:27;4;3;2
44871;PMS7003;30602;51.060;17.226;2023-04-04T01:44:16;5;4;2
44871;PMS7003;30602;51.060;17.226;2023-04-04T01:47:57;7;4;3
44871;PMS7003;30602;51.060;17.226;2023-04-04T01:51:20;5;5;3
44871;PMS7003;30602;51.060;17.226;2023-04-04T01:55:01;6;5;4
44871;PMS7003;30602;51.060;17.226;2023-04-04T01:58:26;6;3;3
44871;PMS7003;30602;51.060;17.226;2023-04-04T02:02:08;3;2;1
44871;PMS7003;30602;51.060;17.226;2023-04-04T02:05:48;2;2;2
44871;PMS7003;30602;51.060;17.226;2023-04-04T02:09:14;5;4;3
44871;PMS7003;30602;51.060;17.226;2023-04-04T02:12:47;6;5;3
44871;PMS7003;30602;51.060;17.226;2023-04-04T02:16:32;4;3;3
44871;PMS7003;30602;51.060;17.226;2023-04-04T02:20:28;3;3;2
44871;PMS7003;30602;51.060;17.226;2023-04-04T02:27:32;2;1;1
44871;PMS7003;30602;51.060;17.226;2023-04-04T02:31:15;3;3;2
44871;PMS7003;30602;51.060;17.226;2023-04-04T02:34:56;5;4;3
44871;PMS7003;30602;51.060;17.226;2023-04-04T02:38:39;4;4;3
44871;PMS7003;30602;51.060;17.226;2023-04-04T02:42:04;6;3;3
44871;PMS7003;30602;51.060;17.226;2023-04-04T02:45:47;4;3;3
44871;PMS7003;30602;51.060;17.226;2023-04-04T02:49:10;6;2;2
44871;PMS7003;30602;51.060;17.226;2023-04-04T02:52:39;5;3;3
44871;PMS7003;30602;51.060;17.226;2023-04-04T02:56:31;3;3;3
44871;PMS7003;30602;51.060;17.226;2023-04-04T03:00:08;3;3;2
44871;PMS7003;30602;51.060;17.226;2023-04-04T03:03:28;3;3;2
44871;PMS7003;30602;51.060;17.226;2023-04-04T03:07:18;3;2;1
44871;PMS7003;30602;51.060;17.226;2023-04-04T03:10:43;4;3;2
44871;PMS7003;30602;51.060;17.226;2023-04-04T03:14:17;4;4;3
44871;PMS7003;30602;51.060;17.226;2023-04-04T03:18:09;9;5;3
44871;PMS7003;30602;51.060;17.226;2023-04-04T03:21:45;5;3;3
44871;PMS7003;30602;51.060;17.226;2023-04-04T03:25:25;5;5;3
44871;PMS7003;30602;51.060;17.226;2023-04-04T03:29:05;6;5;3
44871;PMS7003;30602;51.060;17.226;2023-04-04T03:33:02;5;4;3
44871;PMS7003;30602;51.060;17.226;2023-04-04T03:40:32;9;6;4
44871;PMS7003;30602;51.060;17.226;2023-04-04T03:43:57;9;6;5
44871;PMS7003;30602;51.060;17.226;2023-04-04T03:47:40;8;5;4
44871;PMS7003;30602;51.060;17.226;2023-04-04T03:51:35;9;5;4
44871;PMS7003;30602;51.060;17.226;2023-04-04T03:55:02;8;6;5
44871;PMS7003;30602;51.060;17.226;2023-04-04T03:58:27;8;6;4
44871;PMS7003;30602;51.060;17.226;2023-04-04T04:02:11;10;7;5
44871;PMS7003;30602;51.060;17.226;2023-04-04T04:06:06;7;7;5
44871;PMS7003;30602;51.060;17.226;2023-04-04T04:09:39;11;11;7
44871;PMS7003;30602;51.060;17.226;2023-04-04T04:13:54;10;7;6
44871;PMS7003;30602;51.060;17.226;2023-04-04T04:17:48;10;8;5
44871;PMS7003;30602;51.060;17.226;2023-04-04T04:21:23;13;9;6
44871;PMS7003;30602;51.060;17.226;2023-04-04T04:25:17;11;8;6
44871;PMS7003;30602;51.060;17.226;2023-04-04T04:28:53;11;11;8
44871;PMS7003;30602;51.060;17.226;2023-04-04T04:32:17;11;9;7
44871;PMS7003;30602;51.060;17.226;2023-04-04T04:36:31;8;8;6
44871;PMS7003;30602;51.060;17.226;2023-04-04T04:39:52;11;9;6
44871;PMS7003;30602;51.060;17.226;2023-04-04T04:43:34;12;9;7
44871;PMS7003;30602;51.060;17.226;2023-04-04T04:46:58;12;10;8
44871;PMS7003;30602;51.060;17.226;2023-04-04T04:50:51;10;8;6
44871;PMS7003;30602;51.060;17.226;2023-04-04T04:55:02;14;11;9
44871;PMS7003;30602;51.060;17.226;2023-04-04T04:58:43;11;10;7
44871;PMS7003;30602;51.060;17.226;2023-04-04T05:02:09;15;12;8
44871;PMS7003;30602;51.060;17.226;2023-04-04T05:05:33;12;9;7
44871;PMS7003;30602;51.060;17.226;2023-04-04T05:09:03;16;14;10
44871;PMS7003;30602;51.060;17.226;2023-04-04T05:12:56;13;12;9
44871;PMS7003;30602;51.060;17.226;2023-04-04T05:16:19;15;11;8
44871;PMS7003;30602;51.060;17.226;2023-04-04T05:20:10;11;8;7
44871;PMS7003;30602;51.060;17.226;2023-04-04T05:23:45;14;12;7
44871;PMS7003;30602;51.060;17.226;2023-04-04T05:27:24;14;12;8
44871;PMS7003;30602;51.060;17.226;2023-04-04T05:31:08;11;11;8
44871;PMS7003;30602;51.060;17.226;2023-04-04T05:34:43;13;9;6
44871;PMS7003;30602;51.060;17.226;2023-04-04T05:38:36;12;9;6
44871;PMS7003;30602;51.060;17.226;2023-04-04T05:42:00;7;6;5
44871;PMS7003;30602;51.060;17.226;2023-04-04T05:45:21;8;6;5
44871;PMS7003;30602;51.060;17.226;2023-04-04T05:49:16;9;8;6
44871;PMS7003;30602;51.060;17.226;2023-04-04T05:53:02;9;8;5
44871;PMS7003;30602;51.060;17.226;2023-04-04T05:56:45;16;14;9
44871;PMS7003;30602;51.060;17.226;2023-04-04T06:00:05;18;15;9
44871;PMS7003;30602;51.060;17.226;2023-04-04T06:03:31;20;16;12
44871;PMS7003;30602;51.060;17.226;2023-04-04T06:07:02;32;26;16
44871;PMS7003;30602;51.060;17.226;2023-04-04T06:10:35;11;9;7
44871;PMS7003;30602;51.060;17.226;2023-04-04T06:14:50;10;7;6
44871;PMS7003;30602;51.060;17.226;2023-04-04T06:18:41;7;7;4
44871;PMS7003;30602;51.060;17.226;2023-04-04T06:22:00;8;7;5
44871;PMS7003;30602;51.060;17.226;2023-04-04T06:27:24;12;10;8
44871;PMS7003;30602;51.060;17.226;2023-04-04T06:30:46;11;7;6
44871;PMS7003;30602;51.060;17.226;2023-04-04T06:34:37;10;8;6
44871;PMS7003;30602;51.060;17.226;2023-04-04T06:37:59;11;8;5
44871;PMS7003;30602;51.060;17.226;2023-04-04T06:41:45;9;6;3
44871;PMS7003;30602;51.060;17.226;2023-04-04T06:45:41;10;9;6
44871;PMS7003;30602;51.060;17.226;2023-04-04T06:49:16;6;6;5
44871;PMS7003;30602;51.060;17.226;2023-04-04T06:52:37;10;8;5
44871;PMS7003;30602;51.060;17.226;2023-04-04T06:56:10;13;11;7
44871;PMS7003;30602;51.060;17.226;2023-04-04T06:59:31;22;13;9
44871;PMS7003;30602;51.060;17.226;2023-04-04T07:03:01;7;4;3
44871;PMS7003;30602;51.060;17.226;2023-04-04T07:06:50;15;14;9
44871;PMS7003;30602;51.060;17.226;2023-04-04T07:10:17;7;7;5
44871;PMS7003;30602;51.060;17.226;2023-04-04T07:13:39;5;4;2
44871;PMS7003;30602;51.060;17.226;2023-04-04T07:17:00;4;3;1
44871;PMS7003;30602;51.060;17.226;2023-04-04T07:20:22;5;5;4
44871;PMS7003;30602;51.060;17.226;2023-04-04T07:23:47;4;3;3
44871;PMS7003;30602;51.060;17.226;2023-04-04T07:27:55;5;4;3
44871;PMS7003;30602;51.060;17.226;2023-04-04T07:32:10;5;4;4
44871;PMS7003;30602;51.060;17.226;2023-04-04T07:35:46;5;3;2
44871;PMS7003;30602;51.060;17.226;2023-04-04T07:39:11;4;2;2
44871;PMS7003;30602;51.060;17.226;2023-04-04T07:43:03;5;5;3
44871;PMS7003;30602;51.060;17.226;2023-04-04T07:46:56;4;4;4
44871;PMS7003;30602;51.060;17.226;2023-04-04T07:50:15;9;8;5
44871;PMS7003;30602;51.060;17.226;2023-04-04T07:53:55;8;6;4
44871;PMS7003;30602;51.060;17.226;2023-04-04T07:57:17;6;5;3
44871;PMS7003;30602;51.060;17.226;2023-04-04T08:00:55;7;4;3
44871;PMS7003;30602;51.060;17.226;2023-04-04T08:04:17;4;4;3
44871;PMS7003;30602;51.060;17.226;2023-04-04T08:11:58;4;4;1
44871;PMS7003;30602;51.060;17.226;2023-04-04T08:15:51;12;7;5
44871;PMS7003;30602;51.060;17.226;2023-04-04T08:19:23;10;5;4
44871;PMS7003;30602;51.060;17.226;2023-04-04T08:22:57;4;3;1
44871;PMS7003;30602;51.060;17.226;2023-04-04T08:26:20;9;6;4
44871;PMS7003;30602;51.060;17.226;2023-04-04T08:30:15;9;7;5
44871;PMS7003;30602;51.060;17.226;2023-04-04T08:34:06;10;8;5
44871;PMS7003;30602;51.060;17.226;2023-04-04T08:37:28;11;9;6
44871;PMS7003;30602;51.060;17.226;2023-04-04T08:41:06;8;7;4
44871;PMS7003;30602;51.060;17.226;2023-04-04T08:44:48;9;6;5
44871;PMS7003;30602;51.060;17.226;2023-04-04T08:48:40;6;4;4
44871;PMS7003;30602;51.060;17.226;2023-04-04T08:52:07;3;3;3
44871;PMS7003;30602;51.060;17.226;2023-04-04T08:56:06;5;5;4
44871;PMS7003;30602;51.060;17.226;2023-04-04T08:59:48;3;3;2
44871;PMS7003;30602;51.060;17.226;2023-04-04T09:03:29;4;4;3
44871;PMS7003;30602;51.060;17.226;2023-04-04T09:07:02;6;6;4
44871;PMS7003;30602;51.060;17.226;2023-04-04T09:10:46;4;3;2
44871;PMS7003;30602;51.060;17.226;2023-04-04T09:14:51;7;6;4
44871;PMS7003;30602;51.060;17.226;2023-04-04T09:18:43;7;5;4
44871;PMS7003;30602;51.060;17.226;2023-04-04T09:22:44;5;4;4
44871;PMS7003;30602;51.060;17.226;2023-04-04T09:26:22;4;3;3
44871;PMS7003;30602;51.060;17.226;2023-04-04T09:29:54;4;4;4
44871;PMS7003;30602;51.060;17.226;2023-04-04T09:34:00;5;5;4
44871;PMS7003;30602;51.060;17.226;2023-04-04T09:37:21;5;3;2
44871;PMS7003;30602;51.060;17.226;2023-04-04T09:41:12;3;2;1
44871;PMS7003;30602;51.060;17.226;2023-04-04T09:44:58;4;2;1
44871;PMS7003;30602;51.060;17.226;2023-04-04T09:53:19;4;4;4
44871;PMS7003;30602;51.060;17.226;2023-04-04T09:56:55;3;3;3
44871;PMS7003;30602;51.060;17.226;2023-04-04T10:00:18;2;2;2
44871;PMS7003;30602;51.060;17.226;2023-04-04T10:04:10;3;3;2
44871;PMS7003;30602;51.060;17.226;2023-04-04T10:07:36;5;3;2
44871;PMS7003;30602;51.060;17.226;2023-04-04T10:11:33;4;4;3
44871;PMS7003;30602;51.060;17.226;2023-04-04T10:15:16;4;4;3
44871;PMS7003;30602;51.060;17.226;2023-04-04T10:19:00;5;4;3
44871;PMS7003;30602;51.060;17.226;2023-04-04T10:22:58;9;6;4
44871;PMS7003;30602;51.060;17.226;2023-04-04T10:26:20;6;4;3
44871;PMS7003;30602;51.060;17.226;2023-04-04T10:29:48;5;4;3
44871;PMS7003;30602;51.060;17.226;2023-04-04T10:37:26;6;4;3
44871;PMS7003;30602;51.060;17.226;2023-04-04T10:41:15;3;3;3
44871;PMS7003;30602;51.060;17.226;2023-04-04T10:44:46;2;2;2
44871;PMS7003;30602;51.060;17.226;2023-04-04T10:48:47;8;7;5
44871;PMS7003;30602;51.060;17.226;2023-04-04T10:52:44;5;4;3
44871;PMS7003;30602;51.060;17.226;2023-04-04T10:56:40;4;4;3
44871;PMS7003;30602;51.060;17.226;2023-04-04T11:00:56;6;4;3
44871;PMS7003;30602;51.060;17.226;2023-04-04T11:04:41;10;8;6
44871;PMS7003;30602;51.060;17.226;2023-04-04T11:08:42;4;3;2
44871;PMS7003;30602;51.060;17.226;2023-04-04T11:12:33;1;1;1
44871;PMS7003;30602;51.060;17.226;2023-04-04T11:16:42;6;4;3
44871;PMS7003;30602;51.060;17.226;2023-04-04T11:20:10;2;2;2
44871;PMS7003;30602;51.060;17.226;2023-04-04T11:34:41;2;2;1
44871;PMS7003;30602;51.060;17.226;2023-04-04T11:38:17;0;0;0
44871;PMS7003;30602;51.060;17.226;2023-04-04T11:42:20;3;0;0
44871;PMS7003;30602;51.060;17.226;2023-04-04T11:45:50;4;2;2
44871;PMS7003;30602;51.060;17.226;2023-04-04T11:49:27;5;3;2
44871;PMS7003;30602;51.060;17.226;2023-04-04T11:53:11;2;2;2
44871;PMS7003;30602;51.060;17.226;2023-04-04T11:56:35;3;1;1
44871;PMS7003;30602;51.060;17.226;2023-04-04T12:04:13;3;3;2
44871;PMS7003;30602;51.060;17.226;2023-04-04T12:08:10;3;2;1
44871;PMS7003;30602;51.060;17.226;2023-04-04T12:11:56;3;3;3
44871;PMS7003;30602;51.060;17.226;2023-04-04T12:15:30;4;3;2
44871;PMS7003;30602;51.060;17.226;2023-04-04T12:19:02;2;2;1
44871;PMS7003;30602;51.060;17.226;2023-04-04T12:22:26;3;2;1
44871;PMS7003;30602;51.060;17.226;2023-04-04T12:26:26;4;3;2
44871;PMS7003;30602;51.060;17.226;2023-04-04T12:30:19;9;7;5
44871;PMS7003;30602;51.060;17.226;2023-04-04T12:33:42;13;9;6
44871;PMS7003;30602;51.060;17.226;2023-04-04T12:37:09;5;5;4
44871;PMS7003;30602;51.060;17.226;2023-04-04T12:40:58;5;4;4
44871;PMS7003;30602;51.060;17.226;2023-04-04T12:44:42;8;6;6
44871;PMS7003;30602;51.060;17.226;2023-04-04T12:48:15;9;8;6
44871;PMS7003;30602;51.060;17.226;2023-04-04T12:52:01;10;6;5
44871;PMS7003;30602;51.060;17.226;2023-04-04T12:55:46;15;10;6
44871;PMS7003;30602;51.060;17.226;2023-04-04T13:00:16;9;6;4
44871;PMS7003;30602;51.060;17.226;2023-04-04T13:03:51;3;3;3
44871;PMS7003;30602;51.060;17.226;2023-04-04T13:07:47;6;5;5
44871;PMS7003;30602;51.060;17.226;2023-04-04T13:11:49;6;4;3
44871;PMS7003;30602;51.060;17.226;2023-04-04T13:15:21;4;3;2
44871;PMS7003;30602;51.060;17.226;2023-04-04T13:19:28;3;2;2
44871;PMS7003;30602;51.060;17.226;2023-04-04T13:22:57;4;3;2
44871;PMS7003;30602;51.060;17.226;2023-04-04T13:26:22;4;3;3
44871;PMS7003;30602;51.060;17.226;2023-04-04T13:29:46;3;3;3
44871;PMS7003;30602;51.060;17.226;2023-04-04T13:33:49;3;3;2
44871;PMS7003;30602;51.060;17.226;2023-04-04T13:37:27;5;5;4
44871;PMS7003;30602;51.060;17.226;2023-04-04T13:41:08;3;2;2
44871;PMS7003;30602;51.060;17.226;2023-04-04T13:45:28;3;2;0
44871;PMS7003;30602;51.060;17.226;2023-04-04T13:48:56;6;6;5
44871;PMS7003;30602;51.060;17.226;2023-04-04T13:52:20;1;0;0
44871;PMS7003;30602;51.060;17.226;2023-04-04T13:56:04;3;2;1
44871;PMS7003;30602;51.060;17.226;2023-04-04T14:00:11;5;4;3
44871;PMS7003;30602;51.060;17.226;2023-04-04T14:03:46;9;6;5
44871;PMS7003;30602;51.060;17.226;2023-04-04T14:07:21;11;9;6
44871;PMS7003;30602;51.060;17.226;2023-04-04T14:10:57;7;5;3
44871;PMS7003;30602;51.060;17.226;2023-04-04T14:14:36;4;3;3
44871;PMS7003;30602;51.060;17.226;2023-04-04T14:17:59;7;6;3
44871;PMS7003;30602;51.060;17.226;2023-04-04T14:21:25;5;4;4
44871;PMS7003;30602;51.060;17.226;2023-04-04T14:25:39;2;2;1
44871;PMS7003;30602;51.060;17.226;2023-04-04T14:28:59;4;2;1
44871;PMS7003;30602;51.060;17.226;2023-04-04T14:32:34;4;3;2
44871;PMS7003;30602;51.060;17.226;2023-04-04T14:35:54;1;1;0
44871;PMS7003;30602;51.060;17.226;2023-04-04T14:39:20;5;5;4
44871;PMS7003;30602;51.060;17.226;2023-04-04T14:46:54;4;3;3
44871;PMS7003;30602;51.060;17.226;2023-04-04T14:50:38;3;2;1
44871;PMS7003;30602;51.060;17.226;2023-04-04T14:54:03;6;6;3
44871;PMS7003;30602;51.060;17.226;2023-04-04T14:57:23;7;5;4
44871;PMS7003;30602;51.060;17.226;2023-04-04T15:00:58;16;14;9
44871;PMS7003;30602;51.060;17.226;2023-04-04T15:04:24;21;16;11
44871;PMS7003;30602;51.060;17.226;2023-04-04T15:08:18;15;12;8
44871;PMS7003;30602;51.060;17.226;2023-04-04T15:11:40;16;12;8
44871;PMS7003;30602;51.060;17.226;2023-04-04T15:15:00;14;8;6
44871;PMS7003;30602;51.060;17.226;2023-04-04T15:19:05;10;7;5
44871;PMS7003;30602;51.060;17.226;2023-04-04T15:23:05;10;7;5
44871;PMS7003;30602;51.060;17.226;2023-04-04T15:30:30;10;9;8
44871;PMS7003;30602;51.060;17.226;2023-04-04T15:33:58;10;8;6
44871;PMS7003;30602;51.060;17.226;2023-04-04T15:37:42;33;26;15
44871;PMS7003;30602;51.060;17.226;2023-04-04T15:41:06;9;9;7
44871;PMS7003;30602;51.060;17.226;2023-04-04T15:52:19;3;3;3
44871;PMS7003;30602;51.060;17.226;2023-04-04T15:56:22;15;9;7
44871;PMS7003;30602;51.060;17.226;2023-04-04T16:00:13;12;10;6
44871;PMS7003;30602;51.060;17.226;2023-04-04T16:07:56;6;6;6
44871;PMS7003;30602;51.060;17.226;2023-04-04T16:11:36;16;13;9
44871;PMS7003;30602;51.060;17.226;2023-04-04T16:15:00;6;5;3
44871;PMS7003;30602;51.060;17.226;2023-04-04T16:18:25;15;12;8
44871;PMS7003;30602;51.060;17.226;2023-04-04T16:22:37;7;6;5
44871;PMS7003;30602;51.060;17.226;2023-04-04T16:26:10;13;9;7
44871;PMS7003;30602;51.060;17.226;2023-04-04T16:29:34;4;3;3
44871;PMS7003;30602;51.060;17.226;2023-04-04T16:33:01;14;11;8
44871;PMS7003;30602;51.060;17.226;2023-04-04T16:37:06;9;9;7
44871;PMS7003;30602;51.060;17.226;2023-04-04T16:44:41;15;13;9
44871;PMS7003;30602;51.060;17.226;2023-04-04T16:48:44;33;24;13
44871;PMS7003;30602;51.060;17.226;2023-04-04T16:53:00;15;14;10
44871;PMS7003;30602;51.060;17.226;2023-04-04T16:56:41;14;10;6
44871;PMS7003;30602;51.060;17.226;2023-04-04T17:00:08;13;11;9
44871;PMS7003;30602;51.060;17.226;2023-04-04T17:04:17;20;17;11
44871;PMS7003;30602;51.060;17.226;2023-04-04T17:07:54;7;6;4
44871;PMS7003;30602;51.060;17.226;2023-04-04T17:11:24;63;47;25
44871;PMS7003;30602;51.060;17.226;2023-04-04T17:15:05;14;11;7
44871;PMS7003;30602;51.060;17.226;2023-04-04T17:18:45;18;14;11
44871;PMS7003;30602;51.060;17.226;2023-04-04T17:22:33;12;12;8
44871;PMS7003;30602;51.060;17.226;2023-04-04T17:25:54;37;27;20
44871;PMS7003;30602;51.060;17.226;2023-04-04T17:29:26;78;60;35
44871;PMS7003;30602;51.060;17.226;2023-04-04T17:33:24;74;59;35
44871;PMS7003;30602;51.060;17.226;2023-04-04T17:36:52;72;51;32
44871;PMS7003;30602;51.060;17.226;2023-04-04T17:40:57;20;20;16
44871;PMS7003;30602;51.060;17.226;2023-04-04T17:44:18;23;21;17
44871;PMS7003;30602;51.060;17.226;2023-04-04T17:47:58;26;20;13
44871;PMS7003;30602;51.060;17.226;2023-04-04T17:51:19;44;37;23
44871;PMS7003;30602;51.060;17.226;2023-04-04T17:55:24;37;36;24
44871;PMS7003;30602;51.060;17.226;2023-04-04T17:59:30;25;23;18
44871;PMS7003;30602;51.060;17.226;2023-04-04T18:03:17;29;26;17
44871;PMS7003;30602;51.060;17.226;2023-04-04T18:07:05;71;54;32
44871;PMS7003;30602;51.060;17.226;2023-04-04T18:10:40;35;33;22
44871;PMS7003;30602;51.060;17.226;2023-04-04T18:14:06;77;59;35
44871;PMS7003;30602;51.060;17.226;2023-04-04T18:17:35;62;48;30
44871;PMS7003;30602;51.060;17.226;2023-04-04T18:21:27;54;45;26
44871;PMS7003;30602;51.060;17.226;2023-04-04T18:25:16;74;57;35
44871;PMS7003;30602;51.060;17.226;2023-04-04T18:29:31;74;57;35
44871;PMS7003;30602;51.060;17.226;2023-04-04T18:32:52;34;28;19
44871;PMS7003;30602;51.060;17.226;2023-04-04T18:40:34;40;31;21
44871;PMS7003;30602;51.060;17.226;2023-04-04T18:44:16;37;30;18
44871;PMS7003;30602;51.060;17.226;2023-04-04T18:48:05;43;35;23
44871;PMS7003;30602;51.060;17.226;2023-04-04T18:51:28;44;39;24
44871;PMS7003;30602;51.060;17.226;2023-04-04T18:55:20;34;31;20
44871;PMS7003;30602;51.060;17.226;2023-04-04T18:59:10;39;32;19
44871;PMS7003;30602;51.060;17.226;2023-04-04T19:02:40;31;28;19
44871;PMS7003;30602;51.060;17.226;2023-04-04T19:06:02;49;35;23
44871;PMS7003;30602;51.060;17.226;2023-04-04T19:09:24;47;39;27
44871;PMS7003;30602;51.060;17.226;2023-04-04T19:13:05;60;48;28
44871;PMS7003;30602;51.060;17.226;2023-04-04T19:16:49;51;42;28
44871;PMS7003;30602;51.060;17.226;2023-04-04T19:20:54;56;42;27
44871;PMS7003;30602;51.060;17.226;2023-04-04T19:24:37;49;41;25
44871;PMS7003;30602;51.060;17.226;2023-04-04T19:28:09;60;47;29
44871;PMS7003;30602;51.060;17.226;2023-04-04T19:31:41;69;53;33
44871;PMS7003;30602;51.060;17.226;2023-04-04T19:35:16;77;58;35
44871;PMS7003;30602;51.060;17.226;2023-04-04T19:38:53;78;58;35
44871;PMS7003;30602;51.060;17.226;2023-04-04T19:42:42;88;67;41
44871;PMS7003;30602;51.060;17.226;2023-04-04T19:46:38;96;71;43
44871;PMS7003;30602;51.060;17.226;2023-04-04T19:50:06;97;73;42
44871;PMS7003;30602;51.060;17.226;2023-04-04T19:53:58;90;67;40
44871;PMS7003;30602;51.060;17.226;2023-04-04T19:57:27;99;70;41
44871;PMS7003;30602;51.060;17.226;2023-04-04T20:00:57;92;69;39
44871;PMS7003;30602;51.060;17.226;2023-04-04T20:04:26;86;62;37
44871;PMS7003;30602;51.060;17.226;2023-04-04T20:07:52;83;63;37
44871;PMS7003;30602;51.060;17.226;2023-04-04T20:11:43;93;69;43
44871;PMS7003;30602;51.060;17.226;2023-04-04T20:16:22;76;63;39
44871;PMS7003;30602;51.060;17.226;2023-04-04T20:19:53;88;66;40
44871;PMS7003;30602;51.060;17.226;2023-04-04T20:23:26;76;62;39
44871;PMS7003;30602;51.060;17.226;2023-04-04T20:26:58;88;66;41
44871;PMS7003;30602;51.060;17.226;2023-04-04T20:30:27;76;59;38
44871;PMS7003;30602;51.060;17.226;2023-04-04T20:33:52;71;55;36
44871;PMS7003;30602;51.060;17.226;2023-04-04T20:37:33;70;57;36
44871;PMS7003;30602;51.060;17.226;2023-04-04T20:41:14;74;59;35
44871;PMS7003;30602;51.060;17.226;2023-04-04T20:44:48;77;59;37
44871;PMS7003;30602;51.060;17.226;2023-04-04T20:52:04;80;61;39
44871;PMS7003;30602;51.060;17.226;2023-04-04T20:55:35;76;58;35
44871;PMS7003;30602;51.060;17.226;2023-04-04T21:02:54;62;50;30
44871;PMS7003;30602;51.060;17.226;2023-04-04T21:06:39;67;53;34
44871;PMS7003;30602;51.060;17.226;2023-04-04T21:13:49;69;52;32
44871;PMS7003;30602;51.060;17.226;2023-04-04T21:17:25;57;46;29
44871;PMS7003;30602;51.060;17.226;2023-04-04T21:24:34;54;44;28
44871;PMS7003;30602;51.060;17.226;2023-04-04T21:28:07;58;46;30
44871;PMS7003;30602;51.060;17.226;2023-04-04T21:31:39;54;41;24
44871;PMS7003;30602;51.060;17.226;2023-04-04T21:35:07;32;27;15
44871;PMS7003;30602;51.060;17.226;2023-04-04T21:38:59;53;46;28
44871;PMS7003;30602;51.060;17.226;2023-04-04T21:42:40;50;43;30
44871;PMS7003;30602;51.060;17.226;2023-04-04T21:46:02;65;50;31
44871;PMS7003;30602;51.060;17.226;2023-04-04T21:49:49;48;41;29
44871;PMS7003;30602;51.060;17.226;2023-04-04T21:53:14;48;39;24
44871;PMS7003;30602;51.060;17.226;2023-04-04T21:56:44;48;38;25
44871;PMS7003;30602;51.060;17.226;2023-04-04T22:00:22;57;44;27
44871;PMS7003;30602;51.060;17.226;2023-04-04T22:03:55;59;43;26
44871;PMS7003;30602;51.060;17.226;2023-04-04T22:07:20;52;44;27
44871;PMS7003;30602;51.060;17.226;2023-04-04T22:10:44;49;38;24
44871;PMS7003;30602;51.060;17.226;2023-04-04T22:14:16;46;39;27
44871;PMS7003;30602;51.060;17.226;2023-04-04T22:17:41;50;42;26
44871;PMS7003;30602;51.060;17.226;2023-04-04T22:21:22;53;42;24
44871;PMS7003;30602;51.060;17.226;2023-04-04T22:25:10;50;42;26
44871;PMS7003;30602;51.060;17.226;2023-04-04T22:29:18;90;68;40
44871;PMS7003;30602;51.060;17.226;2023-04-04T22:32:57;94;69;41
44871;PMS7003;30602;51.060;17.226;2023-04-04T22:36:32;74;57;32
44871;PMS7003;30602;51.060;17.226;2023-04-04T22:40:06;68;51;31
44871;PMS7003;30602;51.060;17.226;2023-04-04T22:43:36;52;43;27
44871;PMS7003;30602;51.060;17.226;2023-04-04T22:47:05;51;43;28
44871;PMS7003;30602;51.060;17.226;2023-04-04T22:50:42;52;43;26
44871;PMS7003;30602;51.060;17.226;2023-04-04T22:54:24;49;40;24
44871;PMS7003;30602;51.060;17.226;2023-04-04T22:58:00;44;37;24
44871;PMS7003;30602;51.060;17.226;2023-04-04T23:01:57;59;45;29
44871;PMS7003;30602;51.060;17.226;2023-04-04T23:05:21;47;38;26
44871;PMS7003;30602;51.060;17.226;2023-04-04T23:08:50;48;40;25
44871;PMS7003;30602;51.060;17.226;2023-04-04T23:12:25;46;40;26
44871;PMS7003;30602;51.060;17.226;2023-04-04T23:16:05;46;38;24
44871;PMS7003;30602;51.060;17.226;2023-04-04T23:19:38;52;39;22
44871;PMS7003;30602;51.060;17.226;2023-04-04T23:23:04;48;36;23
44871;PMS7003;30602;51.060;17.226;2023-04-04T23:26:30;50;36;22
44871;PMS7003;30602;51.060;17.226;2023-04-04T23:30:10;53;44;27
44871;PMS7003;30602;51.060;17.226;2023-04-04T23:33:35;60;43;28
44871;PMS7003;30602;51.060;17.226;2023-04-04T23:37:00;52;43;25
44871;PMS7003;30602;51.060;17.226;2023-04-04T23:40:45;47;40;25
44871;PMS7003;30602;51.060;17.226;2023-04-04T23:44:16;40;37;25
44871;PMS7003;30602;51.060;17.226;2023-04-04T23:47:58;47;40;25
44871;PMS7003;30602;51.060;17.226;2023-04-04T23:51:41;50;42;28
44871;PMS7003;30602;51.060;17.226;2023-04-04T23:55:21;51;42;26
44871;PMS7003;30602;51.060;17.226;2023-04-04T23:58:57;54;44;27
